Terminal Aerodrome Forecast
Issued by NWS Duluth, MN

Home | Current Version | Previous Version | Graphics & Text | Print | Product List | Glossary On
Versions: 1 2 3 4 5 6 7 8 9 10 11 12 13 14 15 16 17
000
FTUS43 KDLH 051031 AAA
TAFINL
TAF AMD
KINL 051031Z 0511/0606 20005KT P6SM VCSH BKN090
     FM051400 21009KT P6SM SKC
     FM051700 24011G19KT P6SM SKC
     FM052000 27013G25KT P6SM SKC
     FM060100 25005KT P6SM SKC=

USA.gov is the U.S. government's official web portal to all federal, state and local government web resources and services.